Time;durP1;ratioP1;P1;durP2;ratioP2;P2;SDS_P1;SDS_P2;PMS_P1;PMS_P2;Temp;Humidity;BMP_temperature;BMP_pressure;BME280_temperature;BME280_humidity;BME280_pressure;Samples;Min_cycle;Max_cycle;Signal;HPM_P1;HPM_P2
2022/08/22 00:00:50;;;;;;;3.50;2.00;;;;;;;18.86;60.61;100297.94;5073909;28;20057;-67
2022/08/22 00:03:26;;;;;;;3.42;2.28;;;;;;;18.80;61.03;100299.44;5073248;28;20060;-67
2022/08/22 00:06:06;;;;;;;3.80;2.13;;;;;;;18.74;61.80;100300.91;5090078;28;20490;-67
2022/08/22 00:08:41;;;;;;;3.95;2.42;;;;;;;18.69;61.88;100287.06;5078611;28;20390;-67
2022/08/22 00:11:17;;;;;;;3.97;2.40;;;;;;;18.66;61.93;100294.28;5073289;28;20048;-67
2022/08/22 00:13:55;;;;;;;4.93;2.42;;;;;;;18.62;62.21;100294.22;5073364;28;20481;-68
2022/08/22 00:16:33;;;;;;;5.68;2.60;;;;;;;18.56;62.20;100283.63;5073828;28;20063;-67
2022/08/22 00:19:12;;;;;;;3.80;2.00;;;;;;;18.53;62.21;100293.66;5064280;28;20059;-67
2022/08/22 00:21:47;;;;;;;4.50;2.47;;;;;;;18.51;62.25;100290.38;5053651;28;20049;-67
2022/08/22 00:24:20;;;;;;;4.10;2.10;;;;;;;18.49;62.21;100297.59;5070048;28;20485;-67
2022/08/22 00:26:52;;;;;;;3.30;2.30;;;;;;;18.41;62.52;100291.78;5073353;28;20386;-66
2022/08/22 00:29:24;;;;;;;4.65;2.08;;;;;;;18.33;62.94;100301.31;5073367;28;20045;-66
2022/08/22 00:32:02;;;;;;;2.92;2.25;;;;;;;18.26;63.08;100296.31;5073385;28;20453;-66
2022/08/22 00:34:34;;;;;;;2.92;2.20;;;;;;;18.24;63.18;100300.72;5076711;28;20056;-67
2022/08/22 00:37:08;;;;;;;3.50;2.00;;;;;;;18.18;63.30;100293.72;5073040;28;20059;-67
2022/08/22 00:39:41;;;;;;;4.15;2.00;;;;;;;18.13;63.29;100292.03;5073050;28;20056;-67
2022/08/22 00:42:36;;;;;;;4.78;2.70;;;;;;;18.09;63.40;100293.97;5072400;28;20064;-67
2022/08/22 00:45:36;;;;;;;3.60;2.10;;;;;;;18.01;63.44;100286.53;5072779;28;20052;-67
2022/08/22 00:48:18;;;;;;;5.22;2.42;;;;;;;17.95;63.84;100299.28;5046263;28;20060;-67
2022/08/22 00:51:10;;;;;;;5.20;2.67;;;;;;;17.91;63.79;100292.75;5052996;28;20063;-67
2022/08/22 00:53:49;;;;;;;3.25;2.40;;;;;;;17.87;63.98;100303.13;5055827;28;20052;-67
2022/08/22 00:56:48;;;;;;;3.77;2.40;;;;;;;17.82;64.17;100290.94;5072410;28;20052;-66
2022/08/22 00:59:36;;;;;;;2.30;2.10;;;;;;;17.76;64.23;100292.38;5071508;28;20040;-68
2022/08/22 01:02:19;;;;;;;4.40;2.30;;;;;;;17.72;64.23;100291.50;5072381;28;20052;-67
2022/08/22 01:05:00;;;;;;;5.38;2.70;;;;;;;17.71;64.53;100300.31;5070872;28;20068;-67
2022/08/22 01:07:49;;;;;;;5.32;2.83;;;;;;;17.62;64.44;100292.09;5072979;28;20048;-67
2022/08/22 01:10:42;;;;;;;3.97;2.60;;;;;;;17.56;64.49;100287.91;5072470;28;20056;-68
2022/08/22 01:13:23;;;;;;;4.60;2.50;;;;;;;17.53;64.59;100288.63;5072649;28;20478;-67
2022/08/22 01:15:59;;;;;;;4.72;2.63;;;;;;;17.47;64.87;100290.09;5072312;28;20071;-68
2022/08/22 01:18:50;;;;;;;5.72;3.03;;;;;;;17.41;65.07;100289.56;5075467;28;20048;-67
2022/08/22 01:21:43;;;;;;;3.63;2.53;;;;;;;17.36;65.24;100293.47;5074000;28;20040;-67
2022/08/22 01:28:12;;;;;;;3.03;2.42;;;;;;;17.20;65.87;100292.69;5051896;28;20056;-67
2022/08/22 01:31:00;;;;;;;3.75;2.85;;;;;;;17.15;65.91;100290.13;5001646;28;20048;-67
2022/08/22 01:34:12;;;;;;;4.38;2.80;;;;;;;17.14;65.78;100288.50;5084605;28;20075;-67
2022/08/22 01:37:08;;;;;;;4.45;2.70;;;;;;;17.08;66.09;100295.59;5012557;28;20052;-67
2022/08/22 01:40:15;;;;;;;6.03;2.78;;;;;;;17.04;66.08;100284.22;5072192;28;20397;-66
2022/08/22 01:43:07;;;;;;;5.10;3.28;;;;;;;17.01;66.50;100285.78;5072294;28;20056;-68
2022/08/22 01:45:58;;;;;;;5.60;3.60;;;;;;;16.98;66.65;100286.50;5067453;28;20048;-68
2022/08/22 01:48:35;;;;;;;4.47;3.20;;;;;;;16.97;66.79;100281.25;5087546;28;20051;-67
2022/08/22 01:51:17;;;;;;;5.13;3.17;;;;;;;16.93;66.95;100288.78;5084383;28;20055;-68
2022/08/22 01:53:56;;;;;;;4.78;3.25;;;;;;;16.90;66.99;100287.47;5088032;28;20055;-68
2022/08/22 01:56:25;;;;;;;5.72;3.70;;;;;;;16.88;67.33;100286.22;5083060;28;20048;-67
2022/08/22 01:58:58;;;;;;;4.70;3.25;;;;;;;16.88;67.23;100291.84;5071831;28;20059;-67
2022/08/22 02:01:38;;;;;;;7.85;3.53;;;;;;;16.83;67.28;100284.50;5073960;28;20048;-68
2022/08/22 02:04:09;;;;;;;;;;;;;;;16.78;67.44;100285.56;5072063;28;20087;-68
2022/08/22 02:06:45;;;;;;;4.72;3.20;;;;;;;16.77;67.37;100286.72;5071808;28;19927;-67
2022/08/22 02:09:26;;;;;;;5.25;3.80;;;;;;;16.75;67.60;100280.63;5071970;28;20060;-67
2022/08/22 02:12:00;;;;;;;6.00;3.58;;;;;;;16.76;67.44;100287.09;5071635;28;20060;-67
2022/08/22 02:14:47;;;;;;;5.35;3.33;;;;;;;16.75;67.10;100291.88;5071352;28;20067;-68
2022/08/22 02:17:22;;;;;;;5.85;3.22;;;;;;;16.72;67.20;100292.63;5076783;28;20717;-68
2022/08/22 02:19:58;;;;;;;6.65;2.92;;;;;;;16.69;67.59;100279.25;5092189;28;20048;-67
2022/08/22 02:22:35;;;;;;;7.28;3.70;;;;;;;16.67;67.39;100286.44;5081538;28;20162;-68
2022/08/22 02:25:11;;;;;;;5.03;3.08;;;;;;;16.54;67.47;100278.06;5072068;28;20059;-68
2022/08/22 02:27:49;;;;;;;5.78;3.20;;;;;;;16.50;67.62;100274.34;5071652;28;20508;-69
2022/08/22 02:30:20;;;;;;;5.13;3.15;;;;;;;16.49;67.71;100281.16;5081163;28;20048;-68
2022/08/22 02:32:58;;;;;;;4.32;3.25;;;;;;;16.50;67.59;100270.72;5081120;28;20053;-65
2022/08/22 02:35:32;;;;;;;4.28;3.50;;;;;;;16.47;67.82;100274.25;5072006;28;20052;-62
2022/08/22 02:38:12;;;;;;;6.45;3.92;;;;;;;16.42;68.04;100276.16;5071678;28;20052;-62
2022/08/22 02:40:47;;;;;;;5.72;3.72;;;;;;;16.47;68.24;100272.25;5071091;28;20068;-62
2022/08/22 02:43:20;;;;;;;6.63;3.58;;;;;;;16.47;68.54;100275.06;5071496;28;20064;-63
2022/08/22 02:46:02;;;;;;;4.43;3.20;;;;;;;16.44;68.51;100272.97;5085517;28;20405;-62
2022/08/22 02:48:38;;;;;;;4.47;3.20;;;;;;;16.42;68.68;100269.69;5079433;28;20085;-64
2022/08/22 02:51:17;;;;;;;5.05;3.40;;;;;;;16.44;68.72;100273.78;5071397;28;20481;-62
2022/08/22 02:53:53;;;;;;;4.18;3.30;;;;;;;16.44;68.48;100273.78;5071595;28;20084;-64
2022/08/22 02:56:26;;;;;;;5.38;3.40;;;;;;;16.34;68.73;100277.13;5071409;28;20401;-63
2022/08/22 02:58:57;;;;;;;4.78;3.45;;;;;;;16.21;69.36;100272.72;5077537;28;20500;-62
2022/08/22 03:01:37;;;;;;;9.25;4.07;;;;;;;16.11;69.72;100276.88;5091128;28;20063;-66
2022/08/22 03:04:49;;;;;;;6.30;3.80;;;;;;;16.17;69.57;100269.81;5078850;28;20056;-63
2022/08/22 03:07:30;;;;;;;5.30;3.42;;;;;;;16.19;69.47;100273.09;5037761;28;20067;-64
2022/08/22 03:10:09;;;;;;;7.45;3.90;;;;;;;16.24;69.33;100269.19;5074861;28;20056;-64
2022/08/22 03:12:44;;;;;;;5.82;3.53;;;;;;;16.28;69.43;100264.50;5074840;28;20056;-64
2022/08/22 03:15:27;;;;;;;8.85;4.10;;;;;;;16.30;68.85;100255.72;5074551;28;20052;-64
2022/08/22 03:18:00;;;;;;;5.68;4.13;;;;;;;16.20;69.06;100257.84;5075128;28;20489;-63
2022/08/22 03:20:42;;;;;;;5.63;3.72;;;;;;;16.09;69.27;100258.72;5074469;28;20048;-64
2022/08/22 03:23:20;;;;;;;7.03;3.88;;;;;;;16.05;69.33;100253.00;5074585;28;20063;-64
2022/08/22 03:25:56;;;;;;;7.43;4.07;;;;;;;16.06;69.24;100251.00;5074842;28;20055;-63
2022/08/22 03:28:30;;;;;;;5.40;3.85;;;;;;;16.09;69.34;100255.91;5086515;28;20056;-64
2022/08/22 03:31:01;;;;;;;6.65;4.25;;;;;;;16.09;69.20;100251.13;5074841;28;20481;-63
2022/08/22 03:33:31;;;;;;;5.05;3.67;;;;;;;16.08;69.47;100254.28;5074346;28;20053;-64
2022/08/22 03:36:05;;;;;;;7.00;3.95;;;;;;;16.10;69.32;100254.72;5074382;28;20048;-64
2022/08/22 03:38:51;;;;;;;5.60;4.05;;;;;;;16.05;69.39;100241.75;5074301;28;20052;-64
2022/08/22 03:42:09;;;;;;;5.40;3.38;;;;;;;16.02;69.56;100250.88;5054037;28;20049;-64
2022/08/22 03:45:02;;;;;;;4.68;3.90;;;;;;;16.00;69.46;100253.25;4997434;28;20060;-64
2022/08/22 03:47:49;;;;;;;5.93;4.22;;;;;;;15.98;69.61;100253.63;5011747;28;20060;-64
2022/08/22 03:50:52;;;;;;;5.07;3.33;;;;;;;16.00;69.69;100253.25;5057606;28;20048;-64
2022/08/22 03:53:42;;;;;;;4.82;3.92;;;;;;;15.95;69.84;100251.50;5073518;28;20079;-64
2022/08/22 03:56:44;;;;;;;4.97;3.70;;;;;;;15.94;69.57;100252.69;5071056;28;20404;-64
2022/08/22 03:59:50;;;;;;;5.63;3.80;;;;;;;15.91;69.61;100256.19;5094095;28;20052;-64
2022/08/22 04:02:57;;;;;;;6.28;3.67;;;;;;;15.89;69.82;100258.53;5028640;28;20053;-64
2022/08/22 04:05:45;;;;;;;5.10;3.88;;;;;;;15.89;69.38;100258.53;5074049;28;20071;-64
2022/08/22 04:08:37;;;;;;;6.18;3.90;;;;;;;15.81;69.69;100253.88;5073899;28;20053;-64
2022/08/22 04:11:29;;;;;;;4.85;3.65;;;;;;;15.86;69.57;100256.47;5075775;28;20051;-64
2022/08/22 04:14:16;;;;;;;4.63;3.97;;;;;;;15.87;69.83;100254.47;5093680;28;20055;-63
2022/08/22 04:17:27;;;;;;;5.32;3.40;;;;;;;15.88;69.72;100258.91;5077927;28;20056;-63
2022/08/22 04:20:26;;;;;;;4.38;3.65;;;;;;;15.87;69.69;100255.28;5065347;28;20049;-63
2022/08/22 04:23:19;;;;;;;5.88;3.70;;;;;;;15.89;69.65;100250.13;5045549;28;20048;-64
2022/08/22 04:25:51;;;;;;;5.70;3.63;;;;;;;15.92;69.49;100257.84;5078803;28;20048;-63
2022/08/22 04:28:23;;;;;;;5.50;3.97;;;;;;;15.93;69.47;100258.66;5072923;28;20048;-64
2022/08/22 04:30:55;;;;;;;5.07;4.00;;;;;;;15.94;69.26;100260.31;5073407;28;20048;-64
2022/08/22 04:33:27;;;;;;;5.32;3.67;;;;;;;15.90;69.63;100257.38;5072871;28;20056;-64
2022/08/22 04:36:03;;;;;;;6.20;3.65;;;;;;;15.92;70.02;100257.03;5072992;28;20049;-64
2022/08/22 04:38:36;;;;;;;6.82;3.97;;;;;;;15.94;70.30;100265.94;5073070;28;20759;-64
2022/08/22 04:41:09;;;;;;;7.53;4.05;;;;;;;15.92;70.06;100262.66;5083459;28;20048;-64
2022/08/22 04:43:44;;;;;;;8.52;4.13;;;;;;;15.97;69.96;100257.59;5072918;28;20378;-63
2022/08/22 04:46:17;;;;;;;5.55;4.05;;;;;;;15.96;69.15;100255.16;5072510;28;20048;-64
2022/08/22 04:48:53;;;;;;;6.55;4.82;;;;;;;15.95;69.30;100257.13;5073147;28;20045;-63
2022/08/22 04:51:31;;;;;;;6.20;4.32;;;;;;;16.04;68.60;100262.59;5072872;28;20051;-64
2022/08/22 04:54:17;;;;;;;5.18;3.55;;;;;;;16.02;68.31;100265.78;5070932;28;20052;-63
2022/08/22 04:57:00;;;;;;;5.90;3.47;;;;;;;16.03;68.20;100261.78;5087572;28;20057;-63
2022/08/22 04:59:30;;;;;;;6.10;3.40;;;;;;;16.05;68.40;100272.66;5072466;28;20052;-63
2022/08/22 05:02:04;;;;;;;6.57;3.40;;;;;;;16.10;68.24;100263.16;5072525;28;20044;-64
2022/08/22 05:04:34;;;;;;;7.95;3.90;;;;;;;16.13;68.22;100268.09;5070339;28;20052;-64
2022/08/22 05:07:07;;;;;;;4.95;4.20;;;;;;;16.11;67.93;100265.63;5083775;28;20048;-64
2022/08/22 05:09:39;;;;;;;7.22;4.43;;;;;;;16.11;67.99;100268.44;5072486;28;20056;-64
2022/08/22 05:12:10;;;;;;;5.40;3.72;;;;;;;16.16;67.99;100272.97;5072438;28;20056;-64
2022/08/22 05:14:42;;;;;;;7.47;4.00;;;;;;;16.18;68.25;100267.81;5072325;28;20444;-64
2022/08/22 05:17:13;;;;;;;6.68;4.00;;;;;;;16.21;68.39;100276.34;5072314;28;20060;-64
2022/08/22 05:19:46;;;;;;;7.00;3.88;;;;;;;16.29;68.12;100265.31;5078883;28;20048;-64
2022/08/22 05:22:20;;;;;;;4.78;4.30;;;;;;;16.31;68.51;100265.75;5072634;28;20046;-64
2022/08/22 05:24:52;;;;;;;5.70;4.10;;;;;;;16.44;68.24;100279.41;5066866;28;20053;-64
2022/08/22 05:27:23;;;;;;;5.80;3.92;;;;;;;16.53;68.18;100276.44;5070132;28;20049;-64
2022/08/22 05:29:54;;;;;;;5.40;3.83;;;;;;;16.69;67.89;100272.81;5070194;28;20052;-64
2022/08/22 05:32:25;;;;;;;6.53;4.68;;;;;;;16.57;68.51;100277.34;5066330;28;20401;-54
2022/08/22 05:34:59;;;;;;;6.53;4.28;;;;;;;16.46;69.68;100283.84;5071392;28;20059;-54
2022/08/22 05:37:44;;;;;;;5.63;4.20;;;;;;;16.89;68.59;100280.25;5071007;28;20071;-55
2022/08/22 05:40:18;;;;;;;6.20;4.07;;;;;;;17.22;67.72;100279.88;5070669;28;20048;-53
2022/08/22 05:42:46;;;;;;;6.07;4.18;;;;;;;17.49;66.65;100285.75;5071251;28;20485;-54
2022/08/22 05:45:16;;;;;;;7.10;4.60;;;;;;;17.67;65.26;100279.72;5070531;28;20044;-54
2022/08/22 05:47:48;;;;;;;5.95;3.67;;;;;;;17.81;65.15;100283.66;5071128;28;20052;-55
2022/08/22 05:50:18;;;;;;;7.32;4.60;;;;;;;17.83;64.52;100283.34;5062060;28;20044;-51
2022/08/22 05:53:01;;;;;;;6.88;4.65;;;;;;;17.87;64.61;100283.41;5072100;28;20382;-52
2022/08/22 05:55:32;;;;;;;6.43;4.13;;;;;;;17.89;64.73;100286.66;5071349;28;20048;-52
2022/08/22 05:58:16;;;;;;;6.20;4.20;;;;;;;17.85;64.83;100287.41;5071346;28;20064;-52
2022/08/22 06:00:47;;;;;;;6.05;4.63;;;;;;;17.98;64.44;100287.28;5071600;28;20068;-52
2022/08/22 06:03:20;;;;;;;6.22;4.55;;;;;;;17.85;65.16;100284.59;5071738;28;20052;-53
2022/08/22 06:05:52;;;;;;;6.53;4.88;;;;;;;17.97;64.41;100285.63;5070352;28;20063;-53
2022/08/22 06:08:26;;;;;;;5.97;5.07;;;;;;;17.73;64.91;100287.50;5071562;28;20057;-53
2022/08/22 06:10:58;;;;;;;5.82;4.13;;;;;;;17.75;65.30;100290.78;5071490;28;20053;-52
2022/08/22 06:13:37;;;;;;;7.07;4.10;;;;;;;17.74;65.58;100293.94;5076687;28;20381;-52
2022/08/22 06:16:13;;;;;;;6.88;4.97;;;;;;;18.12;64.67;100283.94;5073662;28;20057;-51
2022/08/22 06:18:42;;;;;;;6.82;4.50;;;;;;;18.26;63.93;100289.88;5081118;28;20051;-53
2022/08/22 06:21:13;;;;;;;8.68;5.15;;;;;;;18.23;63.99;100294.25;5073843;28;20520;-52
2022/08/22 06:23:46;;;;;;;6.82;4.55;;;;;;;18.20;63.94;100288.53;5091253;28;20064;-52
2022/08/22 06:26:15;;;;;;;6.60;5.07;;;;;;;18.40;63.68;100295.00;5070424;28;20052;-63
2022/08/22 06:28:48;;;;;;;8.60;5.28;;;;;;;18.60;63.33;100296.59;5071227;28;20063;-63
2022/08/22 06:31:21;;;;;;;8.15;5.72;;;;;;;18.80;62.99;100288.94;5076523;28;20055;-63
2022/08/22 06:33:58;;;;;;;7.78;5.40;;;;;;;18.96;62.75;100286.03;5086413;28;20052;-63
2022/08/22 06:36:32;;;;;;;9.98;5.38;;;;;;;19.08;62.35;100282.19;5074121;28;20068;-64
2022/08/22 06:39:11;;;;;;;9.25;5.10;;;;;;;19.22;61.88;100281.63;5071476;28;20080;-62
2022/08/22 06:41:46;;;;;;;7.07;4.75;;;;;;;19.35;61.64;100291.50;5073948;28;20058;-63
2022/08/22 06:44:18;;;;;;;6.53;4.55;;;;;;;19.44;61.69;100288.41;5087997;28;20124;-62
2022/08/22 06:46:51;;;;;;;7.88;5.43;;;;;;;19.60;61.43;100296.75;5059437;28;20610;-63
2022/08/22 06:49:23;;;;;;;89.40;15.57;;;;;;;19.75;60.88;100295.78;5067512;28;20059;-63
2022/08/22 06:51:57;;;;;;;16.20;6.82;;;;;;;19.91;60.52;100301.28;5069478;28;20374;-63
2022/08/22 06:54:28;;;;;;;11.57;5.90;;;;;;;20.06;60.17;100297.44;5069426;28;20052;-63
2022/08/22 06:56:56;;;;;;;8.07;5.22;;;;;;;20.20;59.54;100293.97;5061755;28;20052;-63
2022/08/22 06:59:27;;;;;;;8.45;6.53;;;;;;;20.39;59.13;100295.00;5051204;28;20056;-63
2022/08/22 07:02:01;;;;;;;6.95;5.00;;;;;;;20.51;58.32;100286.25;5051416;28;20048;-64
2022/08/22 07:04:28;;;;;;;6.38;4.82;;;;;;;20.66;57.97;100285.25;5058696;28;20052;-63
2022/08/22 07:06:59;;;;;;;7.47;5.28;;;;;;;20.79;57.15;100287.78;5045583;28;20075;-63
2022/08/22 07:09:33;;;;;;;11.02;5.25;;;;;;;21.06;56.50;100292.13;5057837;28;20485;-63
2022/08/22 07:12:10;;;;;;;5.25;4.53;;;;;;;21.35;55.85;100295.19;5053758;28;20044;-60
2022/08/22 07:14:40;;;;;;;7.03;4.20;;;;;;;21.64;54.81;100292.59;5052179;28;20052;-61
2022/08/22 07:17:15;;;;;;;6.40;4.63;;;;;;;22.00;54.54;100289.97;5050423;28;20056;-61
2022/08/22 07:19:48;;;;;;;7.78;4.13;;;;;;;22.29;53.82;100291.75;5055815;28;20067;-61
2022/08/22 07:22:21;;;;;;;10.18;6.05;;;;;;;22.22;53.63;100282.41;5052323;28;20057;-61
2022/08/22 07:25:01;;;;;;;6.07;4.60;;;;;;;22.72;52.91;100281.75;5053482;28;20064;-62
2022/08/22 07:27:43;;;;;;;8.43;4.53;;;;;;;23.50;51.03;100276.16;5051622;28;20054;-61
2022/08/22 07:30:14;;;;;;;7.40;4.50;;;;;;;24.60;48.49;100269.75;5049915;28;23060;-62
2022/08/22 07:32:48;;;;;;;9.30;5.03;;;;;;;25.73;46.28;100272.91;5046824;28;20055;-61
2022/08/22 07:35:20;;;;;;;6.88;4.03;;;;;;;26.47;44.45;100269.59;5049798;28;20520;-61
2022/08/22 07:37:57;;;;;;;7.18;4.07;;;;;;;27.66;41.98;100276.38;5051721;28;20409;-61
2022/08/22 07:40:32;;;;;;;7.65;3.90;;;;;;;28.53;39.94;100271.34;5049134;28;20063;-62
2022/08/22 07:43:09;;;;;;;6.75;3.58;;;;;;;29.57;37.53;100267.22;5047648;28;20052;-62
2022/08/22 07:45:41;;;;;;;6.25;3.00;;;;;;;30.60;36.26;100268.47;5045614;28;20060;-62
2022/08/22 07:48:24;;;;;;;3.97;2.50;;;;;;;31.95;33.78;100274.63;5053186;28;20118;-62
2022/08/22 07:51:00;;;;;;;6.82;3.20;;;;;;;32.90;33.06;100272.69;5052125;28;20056;-61
2022/08/22 07:53:36;;;;;;;5.00;3.22;;;;;;;33.55;30.95;100277.38;5049204;28;20455;-61
2022/08/22 07:56:07;;;;;;;8.68;2.70;;;;;;;34.67;29.79;100273.22;5055518;28;20416;-61
2022/08/22 07:58:39;;;;;;;5.70;3.25;;;;;;;35.44;28.46;100268.97;5055285;28;20079;-61
2022/08/22 08:01:10;;;;;;;6.43;2.63;;;;;;;36.33;26.69;100266.38;5039362;28;20056;-61
2022/08/22 08:03:39;;;;;;;4.75;2.58;;;;;;;36.44;26.80;100267.88;5042898;28;20064;-61
2022/08/22 08:06:08;;;;;;;6.35;2.40;;;;;;;36.48;26.35;100266.38;5042970;28;20057;-61
2022/08/22 08:08:40;;;;;;;4.80;2.42;;;;;;;36.21;26.60;100263.75;5042120;28;20117;-61
2022/08/22 08:11:13;;;;;;;7.05;2.50;;;;;;;36.05;26.36;100265.00;5045657;28;20052;-63
2022/08/22 08:13:45;;;;;;;4.55;2.22;;;;;;;36.35;25.72;100263.75;5044678;28;20599;-62
2022/08/22 08:16:20;;;;;;;4.75;2.10;;;;;;;37.05;25.90;100265.22;5055095;28;20065;-62
2022/08/22 08:18:49;;;;;;;5.45;2.40;;;;;;;37.03;24.61;100256.19;5040422;28;20922;-63
2022/08/22 08:21:29;;;;;;;4.88;2.10;;;;;;;37.51;24.00;100244.22;5040477;28;20056;-62
2022/08/22 08:23:59;;;;;;;5.07;2.13;;;;;;;37.45;23.46;100245.47;5039653;28;21277;-61
2022/08/22 08:26:34;;;;;;;4.22;2.05;;;;;;;36.87;23.96;100250.94;5045466;28;20051;-61
2022/08/22 08:29:02;;;;;;;4.80;1.83;;;;;;;36.75;24.85;100250.75;5047328;28;20693;-62
2022/08/22 08:31:34;;;;;;;4.80;1.95;;;;;;;36.96;23.41;100248.72;5041608;28;20060;-62
2022/08/22 08:34:06;;;;;;;3.80;1.75;;;;;;;37.69;22.17;100245.25;5044500;28;20465;-62
2022/08/22 08:36:43;;;;;;;3.42;1.70;;;;;;;38.25;21.40;100240.09;5047645;28;20060;-62
2022/08/22 08:39:19;;;;;;;6.03;1.85;;;;;;;38.55;21.11;100240.66;5042652;28;20083;-62
2022/08/22 08:43:25;;;;;;;30.75;4.35;;;;;;;39.16;21.18;100230.00;5042319;28;20048;-62
2022/08/22 08:45:39;;;;;;;7.82;2.75;;;;;;;40.63;19.39;100231.25;5041229;28;20056;-63
2022/08/22 08:48:25;;;;;;;9.77;2.63;;;;;;;41.63;17.98;100219.16;5042256;28;20060;-62
2022/08/22 08:51:22;;;;;;;9.25;2.70;;;;;;;43.01;16.75;100210.41;5039297;28;20616;-63
2022/08/22 08:54:11;;;;;;;18.42;4.32;;;;;;;43.57;15.48;100213.47;5046112;28;20053;-63
2022/08/22 08:56:54;;;;;;;27.00;5.55;;;;;;;44.89;14.38;100213.91;5038863;28;20056;-61
2022/08/22 08:59:37;;;;;;;4.00;1.65;;;;;;;45.70;12.78;100203.75;5039169;28;20381;-64
2022/08/22 09:02:25;;;;;;;8.05;2.20;;;;;;;46.38;13.18;100215.50;5048355;28;20055;-62
2022/08/22 09:05:17;;;;;;;4.20;1.92;;;;;;;47.03;11.82;100199.38;5042374;28;20572;-63
2022/08/22 09:08:22;;;;;;;4.43;1.45;;;;;;;47.08;12.18;100190.34;5056308;28;20052;-62
2022/08/22 09:11:08;;;;;;;3.95;1.50;;;;;;;47.72;11.64;100191.72;5066526;28;20490;-62
2022/08/22 09:13:48;;;;;;;5.40;1.95;;;;;;;48.20;10.98;100188.31;5050746;28;20061;-63
2022/08/22 09:16:45;;;;;;;10.88;1.75;;;;;;;48.31;11.69;100184.22;5046421;28;20056;-62
2022/08/22 09:19:43;;;;;;;3.88;1.75;;;;;;;49.13;11.58;100177.28;5047663;28;20060;-62
2022/08/22 09:22:32;;;;;;;4.63;1.70;;;;;;;49.19;10.83;100177.09;5066113;28;20060;-61
2022/08/22 09:25:16;;;;;;;5.10;1.73;;;;;;;49.38;10.50;100174.47;5058689;28;20152;-61
2022/08/22 09:27:53;;;;;;;4.72;2.10;;;;;;;49.80;10.34;100170.94;5044028;28;20164;-61
2022/08/22 09:30:24;;;;;;;2.22;1.33;;;;;;;49.93;10.33;100175.81;5046147;28;20045;-62
2022/08/22 09:32:59;;;;;;;3.38;1.80;;;;;;;49.95;10.50;100176.75;5053792;28;20048;-61
2022/08/22 09:35:34;;;;;;;3.28;1.63;;;;;;;50.20;10.49;100184.94;5064373;28;20048;-61
2022/08/22 09:38:31;;;;;;;1.90;1.63;;;;;;;49.96;10.05;100175.41;5069315;28;20047;-61
2022/08/22 09:41:11;;;;;;;8.48;2.40;;;;;;;50.11;9.93;100177.50;5063344;28;20429;-61
2022/08/22 09:43:43;;;;;;;6.90;2.75;;;;;;;50.25;10.07;100166.13;5055188;28;20642;-61
2022/08/22 09:46:17;;;;;;;11.43;3.72;;;;;;;50.33;9.99;100172.78;5043344;28;20432;-61
2022/08/22 09:49:02;;;;;;;4.80;2.08;;;;;;;50.58;10.39;100169.03;5038689;28;20430;-62
2022/08/22 09:51:38;;;;;;;6.97;2.88;;;;;;;50.62;10.24;100160.50;5052671;28;20051;-61
2022/08/22 09:54:16;;;;;;;3.92;1.70;;;;;;;50.91;10.16;100151.16;5037792;28;20060;-61
2022/08/22 09:56:58;;;;;;;4.20;1.83;;;;;;;51.48;9.30;100150.09;5043125;28;20052;-61
2022/08/22 09:59:41;;;;;;;2.85;1.75;;;;;;;51.74;8.90;100147.78;5039653;28;20685;-61
2022/08/22 10:02:29;;;;;;;3.00;1.67;;;;;;;52.02;9.51;100142.63;5060888;28;20119;-62
2022/08/22 10:05:11;;;;;;;3.40;2.05;;;;;;;51.72;9.35;100145.41;5044496;28;20067;-62
2022/08/22 10:07:56;;;;;;;2.80;1.73;;;;;;;52.28;8.94;100138.06;5051697;28;20064;-62
2022/08/22 10:10:44;;;;;;;3.50;2.33;;;;;;;52.53;9.51;100137.88;5046829;28;20044;-62
2022/08/22 10:13:25;;;;;;;7.78;2.97;;;;;;;52.73;9.08;100132.72;5048934;28;20071;-62
2022/08/22 10:16:01;;;;;;;5.43;1.90;;;;;;;52.33;9.49;100131.03;5050856;28;20048;-61
2022/08/22 10:18:35;;;;;;;;;;;;;;;51.73;9.39;100135.09;5043055;28;20067;-62
2022/08/22 10:21:11;;;;;;;4.28;2.30;;;;;;;52.29;9.65;100134.47;5049388;28;19931;-61
2022/08/22 10:23:45;;;;;;;3.67;1.90;;;;;;;52.34;9.21;100127.44;5043971;28;20052;-62
2022/08/22 10:26:23;;;;;;;3.65;2.30;;;;;;;52.63;9.42;100128.94;5047179;28;20479;-61
2022/08/22 10:28:55;;;;;;;3.78;2.10;;;;;;;51.80;9.45;100120.78;5049825;28;20477;-62
2022/08/22 10:31:29;;;;;;;3.95;2.00;;;;;;;51.34;9.73;100117.00;5049941;28;20063;-61
2022/08/22 10:34:09;;;;;;;4.35;2.08;;;;;;;51.94;9.76;100116.03;5045144;28;20406;-61
2022/08/22 10:36:47;;;;;;;3.28;1.63;;;;;;;50.76;9.97;100120.25;5056452;28;20055;-62
2022/08/22 10:39:22;;;;;;;4.80;2.28;;;;;;;51.18;9.80;100115.66;5053176;28;20056;-61
2022/08/22 10:42:08;;;;;;;3.08;1.75;;;;;;;50.92;9.95;100114.91;5053565;28;20063;-61
2022/08/22 10:44:44;;;;;;;3.88;2.10;;;;;;;50.17;10.22;100115.00;5050525;28;20048;-60
2022/08/22 10:47:15;;;;;;;3.63;2.20;;;;;;;50.73;10.24;100106.59;5052818;28;20079;-61
2022/08/22 10:49:48;;;;;;;2.60;1.80;;;;;;;51.41;9.90;100103.44;5057110;28;21700;-61
2022/08/22 10:52:22;;;;;;;3.20;2.00;;;;;;;51.95;9.51;100106.47;5055728;28;20061;-60
2022/08/22 10:54:56;;;;;;;3.88;2.17;;;;;;;51.96;9.71;100105.06;5051466;28;20063;-61
2022/08/22 10:57:43;;;;;;;3.80;2.15;;;;;;;52.32;9.39;100106.47;5048495;28;20070;-61
2022/08/22 11:00:17;;;;;;;6.60;2.58;;;;;;;51.48;9.81;100105.56;5043178;28;20516;-61
2022/08/22 11:02:54;;;;;;;3.75;2.10;;;;;;;50.88;10.32;100111.59;5049493;28;20196;-61
2022/08/22 11:05:34;;;;;;;3.60;2.35;;;;;;;51.69;9.88;100102.09;5043364;28;20064;-60
2022/08/22 11:08:37;;;;;;;3.50;2.30;;;;;;;52.12;9.41;100104.81;5050593;28;20056;-61
2022/08/22 11:11:19;;;;;;;3.78;2.00;;;;;;;52.10;9.25;100107.63;5053634;28;20060;-61
2022/08/22 11:14:01;;;;;;;6.43;2.28;;;;;;;52.26;9.21;100096.28;5048402;28;20064;-61
2022/08/22 11:16:44;;;;;;;4.20;1.83;;;;;;;50.04;10.29;100094.56;5061077;28;20049;-61
2022/08/22 11:19:28;;;;;;;8.73;2.60;;;;;;;49.30;10.96;100106.41;5068237;28;20059;-61
2022/08/22 11:22:06;;;;;;;5.18;1.98;;;;;;;49.37;11.07;100092.97;5061508;28;20072;-61
2022/08/22 11:25:13;;;;;;;5.32;2.80;;;;;;;47.92;11.93;100101.41;5051085;28;20067;-60
2022/08/22 11:27:53;;;;;;;4.13;1.80;;;;;;;48.60;11.42;100080.56;5049683;28;20067;-60
2022/08/22 11:30:30;;;;;;;4.75;2.17;;;;;;;48.29;11.84;100098.34;5063570;28;20052;-60
2022/08/22 11:33:29;;;;;;;2.92;1.80;;;;;;;46.70;12.66;100096.53;5062638;28;20048;-60
2022/08/22 11:36:11;;;;;;;5.22;2.33;;;;;;;47.17;12.77;100091.75;5047176;28;20446;-61
2022/08/22 11:38:46;;;;;;;3.42;2.00;;;;;;;47.53;11.97;100085.78;5050369;28;20630;-61
2022/08/22 11:41:22;;;;;;;3.17;1.77;;;;;;;48.13;12.11;100088.66;5039232;28;20067;-60
2022/08/22 11:43:57;;;;;;;3.23;1.80;;;;;;;46.63;12.47;100087.66;5061841;28;20044;-60
2022/08/22 11:46:32;;;;;;;4.55;2.80;;;;;;;45.06;13.82;100096.75;5060871;28;20413;-61
2022/08/22 11:49:14;;;;;;;4.53;2.42;;;;;;;44.84;14.13;100091.34;5066401;28;20410;-60
2022/08/22 11:52:10;;;;;;;2.95;1.70;;;;;;;44.84;13.68;100085.47;5069940;28;20062;-59
2022/08/22 11:54:55;;;;;;;3.70;2.17;;;;;;;45.48;13.74;100085.16;5067340;28;20053;-60
2022/08/22 11:57:32;;;;;;;3.42;2.13;;;;;;;46.35;13.60;100078.19;5061662;28;20063;-60
2022/08/22 12:00:25;;;;;;;4.28;2.05;;;;;;;47.01;12.18;100073.16;5062532;28;20052;-59
2022/08/22 12:03:16;;;;;;;3.92;2.00;;;;;;;47.71;12.00;100074.22;5069299;28;20063;-60
2022/08/22 12:05:47;;;;;;;3.65;2.03;;;;;;;47.64;12.09;100072.81;5073490;28;20418;-60
2022/08/22 12:08:23;;;;;;;3.47;1.60;;;;;;;47.10;12.85;100068.84;5071855;28;20044;-60
2022/08/22 12:10:58;;;;;;;4.18;2.00;;;;;;;46.91;12.52;100072.88;5065533;28;20488;-60
2022/08/22 12:13:41;;;;;;;2.88;2.10;;;;;;;46.30;12.71;100069.50;5063715;28;20060;-59
2022/08/22 12:16:19;;;;;;;3.58;1.80;;;;;;;45.33;13.43;100073.22;5062310;28;20040;-60
2022/08/22 12:18:54;;;;;;;3.58;1.80;;;;;;;44.36;13.97;100071.41;5066651;28;20048;-60
2022/08/22 12:22:07;;;;;;;4.82;2.00;;;;;;;44.17;13.74;100067.75;5073396;28;20052;-59
2022/08/22 12:24:48;;;;;;;4.88;2.00;;;;;;;43.14;14.82;100061.84;5040944;28;20516;-60
2022/08/22 12:27:54;;;;;;;2.67;1.80;;;;;;;42.58;14.75;100056.66;5073909;28;20048;-60